sensor_id;sensor_type;location;lat;lon;timestamp;temperature;humidity
67748;HTU21D;54543;50.712;6.070;2023-10-13T00:00:35;17.93;92.68
67748;HTU21D;54543;50.712;6.070;2023-10-13T00:03:07;17.91;92.29
67748;HTU21D;54543;50.712;6.070;2023-10-13T00:05:40;17.90;92.69
67748;HTU21D;54543;50.712;6.070;2023-10-13T00:08:08;17.90;92.27
67748;HTU21D;54543;50.712;6.070;2023-10-13T00:10:35;17.90;92.49
67748;HTU21D;54543;50.712;6.070;2023-10-13T00:13:01;17.90;92.50
67748;HTU21D;54543;50.712;6.070;2023-10-13T00:15:53;17.91;92.72
67748;HTU21D;54543;50.712;6.070;2023-10-13T00:18:28;17.91;92.49
67748;HTU21D;54543;50.712;6.070;2023-10-13T00:21:08;17.92;92.25
67748;HTU21D;54543;50.712;6.070;2023-10-13T00:23:40;17.94;92.20
67748;HTU21D;54543;50.712;6.070;2023-10-13T00:26:28;17.96;92.14
67748;HTU21D;54543;50.712;6.070;2023-10-13T00:28:55;17.94;92.11
67748;HTU21D;54543;50.712;6.070;2023-10-13T00:31:47;17.93;92.38
67748;HTU21D;54543;50.712;6.070;2023-10-13T00:34:14;17.96;92.28
67748;HTU21D;54543;50.712;6.070;2023-10-13T00:36:51;17.95;92.19
67748;HTU21D;54543;50.712;6.070;2023-10-13T00:39:36;17.94;92.34
67748;HTU21D;54543;50.712;6.070;2023-10-13T00:42:14;17.95;92.33
67748;HTU21D;54543;50.712;6.070;2023-10-13T00:44:51;17.94;92.14
67748;HTU21D;54543;50.712;6.070;2023-10-13T00:47:20;17.93;92.44
67748;HTU21D;54543;50.712;6.070;2023-10-13T00:50:02;17.92;92.57
67748;HTU21D;54543;50.712;6.070;2023-10-13T00:52:29;17.91;92.78
67748;HTU21D;54543;50.712;6.070;2023-10-13T00:54:55;17.94;92.69
67748;HTU21D;54543;50.712;6.070;2023-10-13T00:57:21;17.93;92.98
67748;HTU21D;54543;50.712;6.070;2023-10-13T00:59:56;17.96;92.75
67748;HTU21D;54543;50.712;6.070;2023-10-13T01:02:38;17.97;92.79
67748;HTU21D;54543;50.712;6.070;2023-10-13T01:05:05;17.98;92.94
67748;HTU21D;54543;50.712;6.070;2023-10-13T01:07:35;17.97;93.17
67748;HTU21D;54543;50.712;6.070;2023-10-13T01:10:03;18.00;93.05
67748;HTU21D;54543;50.712;6.070;2023-10-13T01:12:32;18.04;93.14
67748;HTU21D;54543;50.712;6.070;2023-10-13T01:14:58;18.03;93.17
67748;HTU21D;54543;50.712;6.070;2023-10-13T01:17:24;18.04;93.27
67748;HTU21D;54543;50.712;6.070;2023-10-13T01:19:57;18.04;93.37
67748;HTU21D;54543;50.712;6.070;2023-10-13T01:22:24;18.04;93.28
67748;HTU21D;54543;50.712;6.070;2023-10-13T01:24:50;18.05;93.43
67748;HTU21D;54543;50.712;6.070;2023-10-13T01:27:31;18.06;93.49
67748;HTU21D;54543;50.712;6.070;2023-10-13T01:29:57;18.07;93.27
67748;HTU21D;54543;50.712;6.070;2023-10-13T01:32:31;18.12;93.20
67748;HTU21D;54543;50.712;6.070;2023-10-13T01:34:57;18.13;93.29
67748;HTU21D;54543;50.712;6.070;2023-10-13T01:37:30;18.12;93.38
67748;HTU21D;54543;50.712;6.070;2023-10-13T01:39:55;18.14;93.39
67748;HTU21D;54543;50.712;6.070;2023-10-13T01:42:21;18.13;93.37
67748;HTU21D;54543;50.712;6.070;2023-10-13T01:44:50;18.13;93.37
67748;HTU21D;54543;50.712;6.070;2023-10-13T01:47:17;18.11;93.61
67748;HTU21D;54543;50.712;6.070;2023-10-13T01:49:43;18.11;94.11
67748;HTU21D;54543;50.712;6.070;2023-10-13T01:52:13;18.15;93.58
67748;HTU21D;54543;50.712;6.070;2023-10-13T01:54:47;18.18;93.68
67748;HTU21D;54543;50.712;6.070;2023-10-13T01:57:15;18.20;93.38
67748;HTU21D;54543;50.712;6.070;2023-10-13T01:59:44;18.20;93.44
67748;HTU21D;54543;50.712;6.070;2023-10-13T02:02:11;18.23;93.78
67748;HTU21D;54543;50.712;6.070;2023-10-13T02:04:40;18.23;93.51
67748;HTU21D;54543;50.712;6.070;2023-10-13T02:07:20;18.24;93.05
67748;HTU21D;54543;50.712;6.070;2023-10-13T02:09:46;18.24;94.39
67748;HTU21D;54543;50.712;6.070;2023-10-13T02:12:12;18.26;93.21
67748;HTU21D;54543;50.712;6.070;2023-10-13T02:14:40;18.28;93.45
67748;HTU21D;54543;50.712;6.070;2023-10-13T02:17:07;18.28;93.54
67748;HTU21D;54543;50.712;6.070;2023-10-13T02:19:42;18.30;93.28
67748;HTU21D;54543;50.712;6.070;2023-10-13T02:22:12;18.30;93.26
67748;HTU21D;54543;50.712;6.070;2023-10-13T02:24:49;18.33;93.36
67748;HTU21D;54543;50.712;6.070;2023-10-13T02:27:17;18.33;92.65
67748;HTU21D;54543;50.712;6.070;2023-10-13T02:29:43;18.35;92.49
67748;HTU21D;54543;50.712;6.070;2023-10-13T02:32:11;18.37;92.20
67748;HTU21D;54543;50.712;6.070;2023-10-13T02:34:46;18.40;92.17
67748;HTU21D;54543;50.712;6.070;2023-10-13T02:37:12;18.42;92.24
67748;HTU21D;54543;50.712;6.070;2023-10-13T02:39:44;18.41;92.77
67748;HTU21D;54543;50.712;6.070;2023-10-13T02:42:10;18.40;92.25
67748;HTU21D;54543;50.712;6.070;2023-10-13T02:44:49;18.41;93.58
67748;HTU21D;54543;50.712;6.070;2023-10-13T02:47:15;18.39;93.21
67748;HTU21D;54543;50.712;6.070;2023-10-13T02:49:40;18.37;93.37
67748;HTU21D;54543;50.712;6.070;2023-10-13T02:52:09;18.37;93.33
67748;HTU21D;54543;50.712;6.070;2023-10-13T02:54:38;18.37;93.43
67748;HTU21D;54543;50.712;6.070;2023-10-13T02:57:13;18.36;94.21
67748;HTU21D;54543;50.712;6.070;2023-10-13T02:59:41;18.37;93.51
67748;HTU21D;54543;50.712;6.070;2023-10-13T03:02:15;18.37;93.11
67748;HTU21D;54543;50.712;6.070;2023-10-13T03:04:54;18.38;93.22
67748;HTU21D;54543;50.712;6.070;2023-10-13T03:07:35;18.37;93.29
67748;HTU21D;54543;50.712;6.070;2023-10-13T03:10:02;18.38;93.47
67748;HTU21D;54543;50.712;6.070;2023-10-13T03:12:41;18.39;93.29
67748;HTU21D;54543;50.712;6.070;2023-10-13T03:15:07;18.38;93.37
67748;HTU21D;54543;50.712;6.070;2023-10-13T03:17:35;18.37;93.43
67748;HTU21D;54543;50.712;6.070;2023-10-13T03:20:01;18.37;94.19
67748;HTU21D;54543;50.712;6.070;2023-10-13T03:22:30;18.36;93.53
67748;HTU21D;54543;50.712;6.070;2023-10-13T03:24:56;18.37;93.40
67748;HTU21D;54543;50.712;6.070;2023-10-13T03:27:26;18.36;93.40
67748;HTU21D;54543;50.712;6.070;2023-10-13T03:30:06;18.37;93.29
67748;HTU21D;54543;50.712;6.070;2023-10-13T03:32:39;18.37;93.28
67748;HTU21D;54543;50.712;6.070;2023-10-13T03:35:09;18.37;93.23
67748;HTU21D;54543;50.712;6.070;2023-10-13T03:38:04;18.37;93.14
67748;HTU21D;54543;50.712;6.070;2023-10-13T03:40:40;18.36;93.65
67748;HTU21D;54543;50.712;6.070;2023-10-13T03:43:05;18.36;93.59
67748;HTU21D;54543;50.712;6.070;2023-10-13T03:48:16;18.41;93.36
67748;HTU21D;54543;50.712;6.070;2023-10-13T03:51:01;18.42;93.49
67748;HTU21D;54543;50.712;6.070;2023-10-13T03:53:32;18.42;93.20
67748;HTU21D;54543;50.712;6.070;2023-10-13T03:56:06;18.44;93.05
67748;HTU21D;54543;50.712;6.070;2023-10-13T03:58:38;18.47;92.74
67748;HTU21D;54543;50.712;6.070;2023-10-13T04:01:07;18.48;92.58
67748;HTU21D;54543;50.712;6.070;2023-10-13T04:03:35;18.50;92.52
67748;HTU21D;54543;50.712;6.070;2023-10-13T04:06:05;18.54;92.14
67748;HTU21D;54543;50.712;6.070;2023-10-13T04:08:34;18.56;91.92
67748;HTU21D;54543;50.712;6.070;2023-10-13T04:11:08;18.56;91.97
67748;HTU21D;54543;50.712;6.070;2023-10-13T04:13:53;18.56;91.94
67748;HTU21D;54543;50.712;6.070;2023-10-13T04:16:37;18.55;92.37
67748;HTU21D;54543;50.712;6.070;2023-10-13T04:19:17;18.54;92.18
67748;HTU21D;54543;50.712;6.070;2023-10-13T04:21:49;18.53;92.39
67748;HTU21D;54543;50.712;6.070;2023-10-13T04:24:23;18.52;94.51
67748;HTU21D;54543;50.712;6.070;2023-10-13T04:27:05;18.50;92.82
67748;HTU21D;54543;50.712;6.070;2023-10-13T04:29:37;18.50;92.62
67748;HTU21D;54543;50.712;6.070;2023-10-13T04:32:12;18.49;92.50
67748;HTU21D;54543;50.712;6.070;2023-10-13T04:34:44;18.51;92.69
67748;HTU21D;54543;50.712;6.070;2023-10-13T04:37:12;18.51;92.92
67748;HTU21D;54543;50.712;6.070;2023-10-13T04:40:07;18.53;92.57
67748;HTU21D;54543;50.712;6.070;2023-10-13T04:42:37;18.54;92.82
67748;HTU21D;54543;50.712;6.070;2023-10-13T04:45:16;18.56;92.69
67748;HTU21D;54543;50.712;6.070;2023-10-13T04:48:01;18.56;92.69
67748;HTU21D;54543;50.712;6.070;2023-10-13T04:50:47;18.58;92.43
67748;HTU21D;54543;50.712;6.070;2023-10-13T04:53:16;18.59;92.46
67748;HTU21D;54543;50.712;6.070;2023-10-13T04:55:55;18.64;92.14
67748;HTU21D;54543;50.712;6.070;2023-10-13T04:58:52;18.67;92.45
67748;HTU21D;54543;50.712;6.070;2023-10-13T05:01:36;18.71;91.76
67748;HTU21D;54543;50.712;6.070;2023-10-13T05:04:24;18.73;91.82
67748;HTU21D;54543;50.712;6.070;2023-10-13T05:07:04;18.74;91.11
67748;HTU21D;54543;50.712;6.070;2023-10-13T05:09:49;18.73;91.59
67748;HTU21D;54543;50.712;6.070;2023-10-13T05:12:33;18.70;91.30
67748;HTU21D;54543;50.712;6.070;2023-10-13T05:15:18;18.71;91.22
67748;HTU21D;54543;50.712;6.070;2023-10-13T05:18:03;18.74;91.35
67748;HTU21D;54543;50.712;6.070;2023-10-13T05:20:47;18.77;92.26
67748;HTU21D;54543;50.712;6.070;2023-10-13T05:23:31;18.82;92.21
67748;HTU21D;54543;50.712;6.070;2023-10-13T05:26:15;18.84;90.90
67748;HTU21D;54543;50.712;6.070;2023-10-13T05:28:59;18.92;91.58
67748;HTU21D;54543;50.712;6.070;2023-10-13T05:31:43;18.95;90.53
67748;HTU21D;54543;50.712;6.070;2023-10-13T05:34:27;18.99;90.85
67748;HTU21D;54543;50.712;6.070;2023-10-13T05:37:10;19.02;90.48
67748;HTU21D;54543;50.712;6.070;2023-10-13T05:39:54;19.07;90.43
67748;HTU21D;54543;50.712;6.070;2023-10-13T05:42:38;19.09;90.29
67748;HTU21D;54543;50.712;6.070;2023-10-13T05:45:37;19.12;90.28
67748;HTU21D;54543;50.712;6.070;2023-10-13T05:48:23;19.13;90.05
67748;HTU21D;54543;50.712;6.070;2023-10-13T05:51:06;19.13;89.99
67748;HTU21D;54543;50.712;6.070;2023-10-13T05:53:50;19.14;89.50
67748;HTU21D;54543;50.712;6.070;2023-10-13T05:56:34;19.16;89.89
67748;HTU21D;54543;50.712;6.070;2023-10-13T05:59:18;19.16;89.60
67748;HTU21D;54543;50.712;6.070;2023-10-13T06:02:02;19.14;89.63
67748;HTU21D;54543;50.712;6.070;2023-10-13T06:04:46;19.13;89.66
67748;HTU21D;54543;50.712;6.070;2023-10-13T06:07:30;19.12;89.31
67748;HTU21D;54543;50.712;6.070;2023-10-13T06:10:14;19.12;89.17
67748;HTU21D;54543;50.712;6.070;2023-10-13T06:12:58;19.16;89.15
67748;HTU21D;54543;50.712;6.070;2023-10-13T06:15:42;19.18;88.92
67748;HTU21D;54543;50.712;6.070;2023-10-13T06:18:26;19.21;88.81
67748;HTU21D;54543;50.712;6.070;2023-10-13T06:21:10;19.21;88.05
67748;HTU21D;54543;50.712;6.070;2023-10-13T06:23:54;19.24;87.93
67748;HTU21D;54543;50.712;6.070;2023-10-13T06:26:38;19.28;88.12
67748;HTU21D;54543;50.712;6.070;2023-10-13T06:29:22;19.29;87.89
67748;HTU21D;54543;50.712;6.070;2023-10-13T06:31:48;19.29;87.79
67748;HTU21D;54543;50.712;6.070;2023-10-13T06:34:14;19.28;87.67
67748;HTU21D;54543;50.712;6.070;2023-10-13T06:36:41;19.28;87.54
67748;HTU21D;54543;50.712;6.070;2023-10-13T06:39:07;19.30;87.65
67748;HTU21D;54543;50.712;6.070;2023-10-13T06:41:56;19.32;87.24
67748;HTU21D;54543;50.712;6.070;2023-10-13T06:44:21;19.35;87.08
67748;HTU21D;54543;50.712;6.070;2023-10-13T06:46:48;19.32;86.65
67748;HTU21D;54543;50.712;6.070;2023-10-13T06:49:15;19.37;86.83
67748;HTU21D;54543;50.712;6.070;2023-10-13T06:51:43;19.35;86.58
67748;HTU21D;54543;50.712;6.070;2023-10-13T06:54:11;19.35;86.10
67748;HTU21D;54543;50.712;6.070;2023-10-13T06:56:47;19.37;86.18
67748;HTU21D;54543;50.712;6.070;2023-10-13T06:59:17;19.38;85.92
67748;HTU21D;54543;50.712;6.070;2023-10-13T07:01:43;19.38;85.39
67748;HTU21D;54543;50.712;6.070;2023-10-13T07:04:10;19.40;85.51
67748;HTU21D;54543;50.712;6.070;2023-10-13T07:06:40;19.39;85.38
67748;HTU21D;54543;50.712;6.070;2023-10-13T07:09:10;19.39;83.65
67748;HTU21D;54543;50.712;6.070;2023-10-13T07:11:49;19.39;83.86
67748;HTU21D;54543;50.712;6.070;2023-10-13T07:14:17;19.40;83.13
67748;HTU21D;54543;50.712;6.070;2023-10-13T07:17:05;19.42;82.26
67748;HTU21D;54543;50.712;6.070;2023-10-13T07:19:34;19.43;82.45
67748;HTU21D;54543;50.712;6.070;2023-10-13T07:22:02;19.48;82.39
67748;HTU21D;54543;50.712;6.070;2023-10-13T07:24:45;19.47;81.86
67748;HTU21D;54543;50.712;6.070;2023-10-13T07:29:55;19.51;80.84
67748;HTU21D;54543;50.712;6.070;2023-10-13T07:32:29;19.55;82.31
67748;HTU21D;54543;50.712;6.070;2023-10-13T07:34:59;19.59;81.84
67748;HTU21D;54543;50.712;6.070;2023-10-13T07:37:33;19.62;80.56
67748;HTU21D;54543;50.712;6.070;2023-10-13T07:39:59;19.66;80.44
67748;HTU21D;54543;50.712;6.070;2023-10-13T07:42:25;19.69;79.40
67748;HTU21D;54543;50.712;6.070;2023-10-13T07:44:58;19.70;80.16
67748;HTU21D;54543;50.712;6.070;2023-10-13T07:47:24;19.71;78.98
67748;HTU21D;54543;50.712;6.070;2023-10-13T07:49:52;19.75;79.15
67748;HTU21D;54543;50.712;6.070;2023-10-13T07:52:17;19.79;78.86
67748;HTU21D;54543;50.712;6.070;2023-10-13T07:54:49;19.84;77.77
67748;HTU21D;54543;50.712;6.070;2023-10-13T07:57:21;19.88;76.93
67748;HTU21D;54543;50.712;6.070;2023-10-13T07:59:55;19.89;76.10
67748;HTU21D;54543;50.712;6.070;2023-10-13T08:02:34;19.89;77.18
67748;HTU21D;54543;50.712;6.070;2023-10-13T08:05:15;19.90;76.26
67748;HTU21D;54543;50.712;6.070;2023-10-13T08:08:05;19.91;75.38
67748;HTU21D;54543;50.712;6.070;2023-10-13T08:10:40;19.94;76.88
67748;HTU21D;54543;50.712;6.070;2023-10-13T08:13:07;19.96;76.73
67748;HTU21D;54543;50.712;6.070;2023-10-13T08:15:40;19.99;73.12
67748;HTU21D;54543;50.712;6.070;2023-10-13T08:18:12;20.03;75.86
67748;HTU21D;54543;50.712;6.070;2023-10-13T08:20:45;20.06;75.41
67748;HTU21D;54543;50.712;6.070;2023-10-13T08:23:11;20.11;75.70
67748;HTU21D;54543;50.712;6.070;2023-10-13T08:25:40;20.12;76.15
67748;HTU21D;54543;50.712;6.070;2023-10-13T08:28:38;20.09;75.13
67748;HTU21D;54543;50.712;6.070;2023-10-13T08:31:05;20.14;74.44
67748;HTU21D;54543;50.712;6.070;2023-10-13T08:33:40;20.17;74.49
67748;HTU21D;54543;50.712;6.070;2023-10-13T08:36:12;20.22;74.92
67748;HTU21D;54543;50.712;6.070;2023-10-13T08:38:52;20.27;74.22
67748;HTU21D;54543;50.712;6.070;2023-10-13T08:41:21;20.34;74.22
67748;HTU21D;54543;50.712;6.070;2023-10-13T08:43:52;20.43;73.49
67748;HTU21D;54543;50.712;6.070;2023-10-13T08:46:30;20.53;71.51
67748;HTU21D;54543;50.712;6.070;2023-10-13T08:49:05;20.66;73.48
67748;HTU21D;54543;50.712;6.070;2023-10-13T08:51:42;20.84;73.90
67748;HTU21D;54543;50.712;6.070;2023-10-13T08:54:32;20.98;73.28
67748;HTU21D;54543;50.712;6.070;2023-10-13T08:57:11;21.07;72.67
67748;HTU21D;54543;50.712;6.070;2023-10-13T08:59:55;21.14;71.44
67748;HTU21D;54543;50.712;6.070;2023-10-13T09:02:22;21.18;72.69
67748;HTU21D;54543;50.712;6.070;2023-10-13T09:05:09;21.20;72.21
67748;HTU21D;54543;50.712;6.070;2023-10-13T09:07:55;21.21;68.93
67748;HTU21D;54543;50.712;6.070;2023-10-13T09:10:24;21.25;71.56
67748;HTU21D;54543;50.712;6.070;2023-10-13T09:12:58;21.29;72.35
67748;HTU21D;54543;50.712;6.070;2023-10-13T09:15:30;21.32;71.42
67748;HTU21D;54543;50.712;6.070;2023-10-13T09:18:34;21.35;71.76
67748;HTU21D;54543;50.712;6.070;2023-10-13T09:21:18;21.42;71.76
67748;HTU21D;54543;50.712;6.070;2023-10-13T09:24:16;21.47;71.67
67748;HTU21D;54543;50.712;6.070;2023-10-13T09:26:52;21.53;70.81
67748;HTU21D;54543;50.712;6.070;2023-10-13T09:29:22;21.47;70.26
67748;HTU21D;54543;50.712;6.070;2023-10-13T09:31:58;21.36;69.81
67748;HTU21D;54543;50.712;6.070;2023-10-13T09:34:25;21.25;71.67
67748;HTU21D;54543;50.712;6.070;2023-10-13T09:36:58;21.16;71.64
67748;HTU21D;54543;50.712;6.070;2023-10-13T09:39:25;21.13;70.96
67748;HTU21D;54543;50.712;6.070;2023-10-13T09:42:20;21.27;71.93
67748;HTU21D;54543;50.712;6.070;2023-10-13T09:44:49;21.43;69.98
67748;HTU21D;54543;50.712;6.070;2023-10-13T09:47:21;21.46;70.36
67748;HTU21D;54543;50.712;6.070;2023-10-13T09:49:59;21.44;70.98
67748;HTU21D;54543;50.712;6.070;2023-10-13T09:52:31;21.38;71.08
67748;HTU21D;54543;50.712;6.070;2023-10-13T09:55:21;21.50;69.78
67748;HTU21D;54543;50.712;6.070;2023-10-13T09:57:54;21.69;69.48
67748;HTU21D;54543;50.712;6.070;2023-10-13T10:00:27;21.81;68.12
67748;HTU21D;54543;50.712;6.070;2023-10-13T10:03:12;21.99;69.67
67748;HTU21D;54543;50.712;6.070;2023-10-13T10:06:01;22.13;66.71
67748;HTU21D;54543;50.712;6.070;2023-10-13T10:08:31;22.21;66.78
67748;HTU21D;54543;50.712;6.070;2023-10-13T10:14:08;22.40;65.98
67748;HTU21D;54543;50.712;6.070;2023-10-13T10:19:12;22.55;67.04
67748;HTU21D;54543;50.712;6.070;2023-10-13T10:21:37;22.64;65.10
67748;HTU21D;54543;50.712;6.070;2023-10-13T10:24:24;22.72;64.57
67748;HTU21D;54543;50.712;6.070;2023-10-13T10:26:56;22.83;64.35
67748;HTU21D;54543;50.712;6.070;2023-10-13T10:29:22;22.84;65.94
67748;HTU21D;54543;50.712;6.070;2023-10-13T10:31:48;22.71;65.09
67748;HTU21D;54543;50.712;6.070;2023-10-13T10:34:17;22.54;65.32
67748;HTU21D;54543;50.712;6.070;2023-10-13T10:36:57;22.39;64.07
67748;HTU21D;54543;50.712;6.070;2023-10-13T10:39:33;22.28;65.19
67748;HTU21D;54543;50.712;6.070;2023-10-13T10:42:09;22.19;66.01
67748;HTU21D;54543;50.712;6.070;2023-10-13T10:44:41;22.09;67.01
67748;HTU21D;54543;50.712;6.070;2023-10-13T10:47:11;22.09;67.79
67748;HTU21D;54543;50.712;6.070;2023-10-13T10:49:38;22.17;67.76
67748;HTU21D;54543;50.712;6.070;2023-10-13T10:52:08;22.27;66.65
67748;HTU21D;54543;50.712;6.070;2023-10-13T10:54:39;22.40;66.15
67748;HTU21D;54543;50.712;6.070;2023-10-13T10:57:09;22.50;64.91
67748;HTU21D;54543;50.712;6.070;2023-10-13T10:59:38;22.53;64.04
67748;HTU21D;54543;50.712;6.070;2023-10-13T11:02:05;22.57;65.04
67748;HTU21D;54543;50.712;6.070;2023-10-13T11:04:32;22.67;65.17
67748;HTU21D;54543;50.712;6.070;2023-10-13T11:07:06;22.68;65.85
67748;HTU21D;54543;50.712;6.070;2023-10-13T11:09:35;22.64;64.34
67748;HTU21D;54543;50.712;6.070;2023-10-13T11:12:12;22.54;63.63
67748;HTU21D;54543;50.712;6.070;2023-10-13T11:14:48;22.50;64.34
67748;HTU21D;54543;50.712;6.070;2023-10-13T11:17:20;22.47;64.66
67748;HTU21D;54543;50.712;6.070;2023-10-13T11:20:11;22.42;65.06
67748;HTU21D;54543;50.712;6.070;2023-10-13T11:22:49;22.42;64.62
67748;HTU21D;54543;50.712;6.070;2023-10-13T11:25:25;22.36;64.59
67748;HTU21D;54543;50.712;6.070;2023-10-13T11:28:13;22.36;61.84
67748;HTU21D;54543;50.712;6.070;2023-10-13T11:30:44;22.36;64.41
67748;HTU21D;54543;50.712;6.070;2023-10-13T11:33:15;22.28;63.75
67748;HTU21D;54543;50.712;6.070;2023-10-13T11:35:44;22.26;65.75
67748;HTU21D;54543;50.712;6.070;2023-10-13T11:38:16;22.24;64.58
67748;HTU21D;54543;50.712;6.070;2023-10-13T11:41:00;22.21;65.14
67748;HTU21D;54543;50.712;6.070;2023-10-13T11:43:49;22.22;65.41
67748;HTU21D;54543;50.712;6.070;2023-10-13T11:46:16;22.24;65.37
67748;HTU21D;54543;50.712;6.070;2023-10-13T11:48:43;22.26;65.75
67748;HTU21D;54543;50.712;6.070;2023-10-13T11:51:12;22.27;64.34
67748;HTU21D;54543;50.712;6.070;2023-10-13T11:53:49;22.27;64.46
67748;HTU21D;54543;50.712;6.070;2023-10-13T11:56:19;22.31;63.56
67748;HTU21D;54543;50.712;6.070;2023-10-13T11:58:48;22.34;63.89
67748;HTU21D;54543;50.712;6.070;2023-10-13T12:01:14;22.38;64.43
67748;HTU21D;54543;50.712;6.070;2023-10-13T12:06:25;22.54;64.12
67748;HTU21D;54543;50.712;6.070;2023-10-13T12:09:07;22.65;64.62
67748;HTU21D;54543;50.712;6.070;2023-10-13T12:11:48;22.71;63.78
67748;HTU21D;54543;50.712;6.070;2023-10-13T12:14:17;22.75;63.11
67748;HTU21D;54543;50.712;6.070;2023-10-13T12:19:23;22.81;62.21
67748;HTU21D;54543;50.712;6.070;2023-10-13T12:21:51;22.78;63.60
67748;HTU21D;54543;50.712;6.070;2023-10-13T12:24:23;22.75;63.26
67748;HTU21D;54543;50.712;6.070;2023-10-13T12:27:04;22.72;61.77
67748;HTU21D;54543;50.712;6.070;2023-10-13T12:29:45;22.71;63.05
67748;HTU21D;54543;50.712;6.070;2023-10-13T12:32:12;22.71;62.91
67748;HTU21D;54543;50.712;6.070;2023-10-13T12:34:40;22.63;63.76
67748;HTU21D;54543;50.712;6.070;2023-10-13T12:37:24;22.50;63.53
67748;HTU21D;54543;50.712;6.070;2023-10-13T12:40:06;22.39;64.53
67748;HTU21D;54543;50.712;6.070;2023-10-13T12:42:51;22.38;63.90
67748;HTU21D;54543;50.712;6.070;2023-10-13T12:45:46;22.34;64.43
67748;HTU21D;54543;50.712;6.070;2023-10-13T12:48:31;22.29;64.30
67748;HTU21D;54543;50.712;6.070;2023-10-13T12:51:15;22.21;64.19
67748;HTU21D;54543;50.712;6.070;2023-10-13T12:53:51;22.12;64.34
67748;HTU21D;54543;50.712;6.070;2023-10-13T12:56:17;22.07;64.69
67748;HTU21D;54543;50.712;6.070;2023-10-13T12:58:46;22.05;63.96
67748;HTU21D;54543;50.712;6.070;2023-10-13T13:01:18;22.03;64.92
67748;HTU21D;54543;50.712;6.070;2023-10-13T13:03:46;22.07;64.11
67748;HTU21D;54543;50.712;6.070;2023-10-13T13:06:19;22.09;63.25
67748;HTU21D;54543;50.712;6.070;2023-10-13T13:08:52;22.13;64.84
67748;HTU21D;54543;50.712;6.070;2023-10-13T13:11:17;22.16;63.56
67748;HTU21D;54543;50.712;6.070;2023-10-13T13:13:43;22.19;63.24
67748;HTU21D;54543;50.712;6.070;2023-10-13T13:16:15;22.23;63.65
67748;HTU21D;54543;50.712;6.070;2023-10-13T13:18:44;22.26;63.54
67748;HTU21D;54543;50.712;6.070;2023-10-13T13:21:10;22.28;63.57
67748;HTU21D;54543;50.712;6.070;2023-10-13T13:23:46;22.32;61.33
67748;HTU21D;54543;50.712;6.070;2023-10-13T13:26:13;22.35;63.16
67748;HTU21D;54543;50.712;6.070;2023-10-13T13:28:42;22.33;62.77
67748;HTU21D;54543;50.712;6.070;2023-10-13T13:31:08;22.27;63.15
67748;HTU21D;54543;50.712;6.070;2023-10-13T13:33:34;22.23;63.44
67748;HTU21D;54543;50.712;6.070;2023-10-13T13:36:06;22.20;62.40
67748;HTU21D;54543;50.712;6.070;2023-10-13T13:38:32;22.14;64.03
67748;HTU21D;54543;50.712;6.070;2023-10-13T13:40:59;22.09;63.73
67748;HTU21D;54543;50.712;6.070;2023-10-13T13:43:27;22.08;64.32
67748;HTU21D;54543;50.712;6.070;2023-10-13T13:46:16;22.04;63.93
67748;HTU21D;54543;50.712;6.070;2023-10-13T13:48:42;22.02;64.19
67748;HTU21D;54543;50.712;6.070;2023-10-13T13:51:09;21.99;64.33
67748;HTU21D;54543;50.712;6.070;2023-10-13T13:53:43;21.97;63.37
67748;HTU21D;54543;50.712;6.070;2023-10-13T13:56:14;21.93;64.15
67748;HTU21D;54543;50.712;6.070;2023-10-13T13:58:47;21.90;64.29
67748;HTU21D;54543;50.712;6.070;2023-10-13T14:01:13;21.88;62.90
67748;HTU21D;54543;50.712;6.070;2023-10-13T14:03:44;21.78;63.27
67748;HTU21D;54543;50.712;6.070;2023-10-13T14:06:18;21.76;61.73
67748;HTU21D;54543;50.712;6.070;2023-10-13T14:08:49;21.73;63.37
67748;HTU21D;54543;50.712;6.070;2023-10-13T14:11:17;21.69;62.98
67748;HTU21D;54543;50.712;6.070;2023-10-13T14:14:01;21.65;60.67
67748;HTU21D;54543;50.712;6.070;2023-10-13T14:16:30;21.66;63.47
67748;HTU21D;54543;50.712;6.070;2023-10-13T14:18:59;21.62;64.08
67748;HTU21D;54543;50.712;6.070;2023-10-13T14:21:33;21.52;63.75
67748;HTU21D;54543;50.712;6.070;2023-10-13T14:24:00;21.46;63.15
67748;HTU21D;54543;50.712;6.070;2023-10-13T14:26:27;21.47;63.92
67748;HTU21D;54543;50.712;6.070;2023-10-13T14:28:54;21.44;63.95
67748;HTU21D;54543;50.712;6.070;2023-10-13T14:31:34;21.40;63.79
67748;HTU21D;54543;50.712;6.070;2023-10-13T14:34:02;21.36;63.76
67748;HTU21D;54543;50.712;6.070;2023-10-13T14:36:28;21.35;64.76
67748;HTU21D;54543;50.712;6.070;2023-10-13T14:38:57;21.36;64.28
67748;HTU21D;54543;50.712;6.070;2023-10-13T14:41:22;21.35;64.20
67748;HTU21D;54543;50.712;6.070;2023-10-13T14:43:48;21.36;64.18
67748;HTU21D;54543;50.712;6.070;2023-10-13T14:46:18;21.35;63.71
67748;HTU21D;54543;50.712;6.070;2023-10-13T14:48:51;21.33;63.90
67748;HTU21D;54543;50.712;6.070;2023-10-13T14:51:17;21.31;64.24
67748;HTU21D;54543;50.712;6.070;2023-10-13T14:53:44;21.29;63.88
67748;HTU21D;54543;50.712;6.070;2023-10-13T14:56:11;21.25;63.54
67748;HTU21D;54543;50.712;6.070;2023-10-13T14:58:37;21.25;64.05
67748;HTU21D;54543;50.712;6.070;2023-10-13T15:01:27;21.25;62.98
67748;HTU21D;54543;50.712;6.070;2023-10-13T15:03:53;21.22;63.26
67748;HTU21D;54543;50.712;6.070;2023-10-13T15:06:24;21.24;64.26
67748;HTU21D;54543;50.712;6.070;2023-10-13T15:08:51;21.22;64.55
67748;HTU21D;54543;50.712;6.070;2023-10-13T15:11:20;21.18;64.79
67748;HTU21D;54543;50.712;6.070;2023-10-13T15:13:46;21.13;64.88
67748;HTU21D;54543;50.712;6.070;2023-10-13T15:16:17;21.08;64.83
67748;HTU21D;54543;50.712;6.070;2023-10-13T15:18:46;21.09;65.10
67748;HTU21D;54543;50.712;6.070;2023-10-13T15:21:19;21.08;64.77
67748;HTU21D;54543;50.712;6.070;2023-10-13T15:23:45;21.06;65.32
67748;HTU21D;54543;50.712;6.070;2023-10-13T15:26:10;21.03;65.66
67748;HTU21D;54543;50.712;6.070;2023-10-13T15:28:39;21.00;65.14
67748;HTU21D;54543;50.712;6.070;2023-10-13T15:31:15;20.95;63.94
67748;HTU21D;54543;50.712;6.070;2023-10-13T15:33:59;20.94;65.17
67748;HTU21D;54543;50.712;6.070;2023-10-13T15:36:26;20.93;64.83
67748;HTU21D;54543;50.712;6.070;2023-10-13T15:38:55;20.90;65.52
67748;HTU21D;54543;50.712;6.070;2023-10-13T15:41:26;20.91;65.20
67748;HTU21D;54543;50.712;6.070;2023-10-13T15:43:51;20.90;65.02
67748;HTU21D;54543;50.712;6.070;2023-10-13T15:46:19;20.88;65.50
67748;HTU21D;54543;50.712;6.070;2023-10-13T15:48:51;20.88;64.85
67748;HTU21D;54543;50.712;6.070;2023-10-13T15:51:17;20.85;65.88
67748;HTU21D;54543;50.712;6.070;2023-10-13T15:53:44;20.85;65.95
67748;HTU21D;54543;50.712;6.070;2023-10-13T15:56:11;20.84;65.34
67748;HTU21D;54543;50.712;6.070;2023-10-13T15:58:40;20.84;65.45
67748;HTU21D;54543;50.712;6.070;2023-10-13T16:01:06;20.83;65.69
67748;HTU21D;54543;50.712;6.070;2023-10-13T16:03:34;20.81;65.95
67748;HTU21D;54543;50.712;6.070;2023-10-13T16:06:03;20.77;66.17
67748;HTU21D;54543;50.712;6.070;2023-10-13T16:08:39;20.77;66.11
67748;HTU21D;54543;50.712;6.070;2023-10-13T16:11:10;20.76;66.49